sensor_id;sensor_type;location;lat;lon;timestamp;pressure;altitude;pressure_sealevel;temperature;humidity
53480;BME280;56133;51.012;-1.648;2022-08-30T00:00:17;101284.94;;;14.22;100.00
53480;BME280;56133;51.012;-1.648;2022-08-30T00:03:02;101295.31;;;14.17;100.00
53480;BME280;56133;51.012;-1.648;2022-08-30T00:05:29;101288.19;;;14.16;100.00
53480;BME280;56133;51.012;-1.648;2022-08-30T00:07:55;101285.03;;;14.11;100.00
53480;BME280;56133;51.012;-1.648;2022-08-30T00:10:21;101286.91;;;14.10;100.00
53480;BME280;56133;51.012;-1.648;2022-08-30T00:12:47;101294.56;;;14.05;100.00
53480;BME280;56133;51.012;-1.648;2022-08-30T00:15:14;101292.84;;;14.04;100.00
53480;BME280;56133;51.012;-1.648;2022-08-30T00:17:40;101289.16;;;14.05;100.00
53480;BME280;56133;51.012;-1.648;2022-08-30T00:20:09;101289.31;;;14.04;100.00
53480;BME280;56133;51.012;-1.648;2022-08-30T00:22:35;101292.28;;;14.01;100.00
53480;BME280;56133;51.012;-1.648;2022-08-30T00:25:01;101291.28;;;14.02;100.00
53480;BME280;56133;51.012;-1.648;2022-08-30T00:27:27;101286.72;;;14.02;100.00
53480;BME280;56133;51.012;-1.648;2022-08-30T00:29:53;101286.03;;;14.00;100.00
53480;BME280;56133;51.012;-1.648;2022-08-30T00:32:19;101286.03;;;14.00;100.00
53480;BME280;56133;51.012;-1.648;2022-08-30T00:34:46;101299.81;;;13.97;100.00
53480;BME280;56133;51.012;-1.648;2022-08-30T00:37:13;101299.91;;;13.95;100.00
53480;BME280;56133;51.012;-1.648;2022-08-30T00:39:39;101301.06;;;13.93;100.00
53480;BME280;56133;51.012;-1.648;2022-08-30T00:42:04;101303.03;;;13.91;100.00
53480;BME280;56133;51.012;-1.648;2022-08-30T00:44:30;101300.50;;;13.89;100.00
53480;BME280;56133;51.012;-1.648;2022-08-30T00:46:55;101290.66;;;13.88;100.00
53480;BME280;56133;51.012;-1.648;2022-08-30T00:49:21;101292.91;;;13.83;100.00
53480;BME280;56133;51.012;-1.648;2022-08-30T00:51:46;101296.75;;;13.80;100.00
53480;BME280;56133;51.012;-1.648;2022-08-30T00:54:12;101296.75;;;13.80;100.00
53480;BME280;56133;51.012;-1.648;2022-08-30T00:56:39;101296.16;;;13.77;100.00
53480;BME280;56133;51.012;-1.648;2022-08-30T00:59:05;101294.31;;;13.77;100.00
53480;BME280;56133;51.012;-1.648;2022-08-30T01:01:32;101291.16;;;13.72;100.00
53480;BME280;56133;51.012;-1.648;2022-08-30T01:03:59;101292.16;;;13.71;100.00
53480;BME280;56133;51.012;-1.648;2022-08-30T01:06:25;101298.53;;;13.70;100.00
53480;BME280;56133;51.012;-1.648;2022-08-30T01:08:50;101299.53;;;13.69;100.00
53480;BME280;56133;51.012;-1.648;2022-08-30T01:11:19;101305.91;;;13.68;100.00
53480;BME280;56133;51.012;-1.648;2022-08-30T01:13:47;101293.53;;;13.65;100.00
53480;BME280;56133;51.012;-1.648;2022-08-30T01:16:15;101299.22;;;13.62;100.00
53480;BME280;56133;51.012;-1.648;2022-08-30T01:18:41;101304.03;;;13.59;100.00
53480;BME280;56133;51.012;-1.648;2022-08-30T01:23:34;101296.06;;;13.57;100.00
53480;BME280;56133;51.012;-1.648;2022-08-30T01:26:02;101299.16;;;13.53;100.00
53480;BME280;56133;51.012;-1.648;2022-08-30T01:28:28;101295.72;;;13.50;100.00
53480;BME280;56133;51.012;-1.648;2022-08-30T01:30:55;101295.03;;;13.48;100.00
53480;BME280;56133;51.012;-1.648;2022-08-30T01:33:21;101297.84;;;13.47;100.00
53480;BME280;56133;51.012;-1.648;2022-08-30T01:35:54;101296.28;;;13.44;100.00
53480;BME280;56133;51.012;-1.648;2022-08-30T01:38:23;101293.09;;;13.39;100.00
53480;BME280;56133;51.012;-1.648;2022-08-30T01:40:59;101293.84;;;13.41;100.00
53480;BME280;56133;51.012;-1.648;2022-08-30T01:43:26;101295.94;;;13.38;100.00
53480;BME280;56133;51.012;-1.648;2022-08-30T01:45:51;101302.44;;;13.35;100.00
53480;BME280;56133;51.012;-1.648;2022-08-30T01:48:17;101296.78;;;13.38;100.00
53480;BME280;56133;51.012;-1.648;2022-08-30T01:50:43;101305.13;;;13.35;100.00
53480;BME280;56133;51.012;-1.648;2022-08-30T01:53:08;101310.81;;;13.32;100.00
53480;BME280;56133;51.012;-1.648;2022-08-30T01:55:34;101309.22;;;13.29;100.00
53480;BME280;56133;51.012;-1.648;2022-08-30T01:58:00;101309.34;;;13.28;100.00
53480;BME280;56133;51.012;-1.648;2022-08-30T02:00:26;101304.94;;;13.27;100.00
53480;BME280;56133;51.012;-1.648;2022-08-30T02:02:51;101317.44;;;13.28;100.00
53480;BME280;56133;51.012;-1.648;2022-08-30T02:05:17;101304.22;;;13.25;100.00
53480;BME280;56133;51.012;-1.648;2022-08-30T02:07:42;101305.19;;;13.24;100.00
53480;BME280;56133;51.012;-1.648;2022-08-30T02:10:08;101311.44;;;13.24;100.00
53480;BME280;56133;51.012;-1.648;2022-08-30T02:12:34;101313.16;;;13.25;100.00
53480;BME280;56133;51.012;-1.648;2022-08-30T02:15:00;101311.72;;;13.21;100.00
53480;BME280;56133;51.012;-1.648;2022-08-30T02:17:26;101315.53;;;13.18;100.00
53480;BME280;56133;51.012;-1.648;2022-08-30T02:19:52;101313.09;;;13.15;100.00
53480;BME280;56133;51.012;-1.648;2022-08-30T02:22:17;101310.38;;;13.15;100.00
53480;BME280;56133;51.012;-1.648;2022-08-30T02:24:45;101313.38;;;13.12;100.00
53480;BME280;56133;51.012;-1.648;2022-08-30T02:27:10;101309.22;;;13.08;100.00
53480;BME280;56133;51.012;-1.648;2022-08-30T02:29:36;101315.84;;;13.04;100.00
53480;BME280;56133;51.012;-1.648;2022-08-30T02:32:01;101303.59;;;13.00;100.00
53480;BME280;56133;51.012;-1.648;2022-08-30T02:34:27;101310.25;;;12.96;100.00
53480;BME280;56133;51.012;-1.648;2022-08-30T02:36:52;101318.84;;;12.89;100.00
53480;BME280;56133;51.012;-1.648;2022-08-30T02:39:17;101316.56;;;12.85;100.00
53480;BME280;56133;51.012;-1.648;2022-08-30T02:41:43;101315.69;;;12.84;100.00
53480;BME280;56133;51.012;-1.648;2022-08-30T02:44:09;101311.41;;;12.82;100.00
53480;BME280;56133;51.012;-1.648;2022-08-30T02:46:36;101316.81;;;12.82;100.00
53480;BME280;56133;51.012;-1.648;2022-08-30T02:49:01;101306.03;;;12.82;100.00
53480;BME280;56133;51.012;-1.648;2022-08-30T02:51:27;101314.09;;;12.82;100.00
53480;BME280;56133;51.012;-1.648;2022-08-30T02:53:52;101307.97;;;12.80;100.00
53480;BME280;56133;51.012;-1.648;2022-08-30T02:56:18;101309.22;;;12.75;100.00
53480;BME280;56133;51.012;-1.648;2022-08-30T02:58:43;101306.66;;;12.74;100.00
53480;BME280;56133;51.012;-1.648;2022-08-30T03:01:10;101308.38;;;12.75;100.00
53480;BME280;56133;51.012;-1.648;2022-08-30T03:03:38;101305.69;;;12.75;100.00
53480;BME280;56133;51.012;-1.648;2022-08-30T03:06:03;101309.34;;;12.74;100.00
53480;BME280;56133;51.012;-1.648;2022-08-30T03:08:30;101306.53;;;12.75;100.00
53480;BME280;56133;51.012;-1.648;2022-08-30T03:10:55;101303.00;;;12.75;100.00
53480;BME280;56133;51.012;-1.648;2022-08-30T03:13:24;101305.94;;;12.72;100.00
53480;BME280;56133;51.012;-1.648;2022-08-30T03:15:50;101300.53;;;12.72;100.00
53480;BME280;56133;51.012;-1.648;2022-08-30T03:18:19;101304.06;;;12.72;100.00
53480;BME280;56133;51.012;-1.648;2022-08-30T03:20:46;101297.13;;;12.70;100.00
53480;BME280;56133;51.012;-1.648;2022-08-30T03:23:12;101290.88;;;12.69;100.00
53480;BME280;56133;51.012;-1.648;2022-08-30T03:25:38;101285.59;;;12.68;100.00
53480;BME280;56133;51.012;-1.648;2022-08-30T03:28:04;101293.81;;;12.66;100.00
53480;BME280;56133;51.012;-1.648;2022-08-30T03:30:29;101291.25;;;12.65;100.00
53480;BME280;56133;51.012;-1.648;2022-08-30T03:32:55;101286.72;;;12.65;100.00
53480;BME280;56133;51.012;-1.648;2022-08-30T03:35:20;101296.19;;;12.59;100.00
53480;BME280;56133;51.012;-1.648;2022-08-30T03:37:45;101279.13;;;12.59;100.00
53480;BME280;56133;51.012;-1.648;2022-08-30T03:40:13;101282.69;;;12.59;100.00
53480;BME280;56133;51.012;-1.648;2022-08-30T03:42:41;101271.31;;;12.56;100.00
53480;BME280;56133;51.012;-1.648;2022-08-30T03:45:07;101272.31;;;12.55;100.00
53480;BME280;56133;51.012;-1.648;2022-08-30T03:47:34;101274.88;;;12.56;100.00
53480;BME280;56133;51.012;-1.648;2022-08-30T03:49:59;101262.63;;;12.52;100.00
53480;BME280;56133;51.012;-1.648;2022-08-30T03:52:25;101264.47;;;12.52;100.00
53480;BME280;56133;51.012;-1.648;2022-08-30T03:54:51;101264.34;;;12.53;100.00
53480;BME280;56133;51.012;-1.648;2022-08-30T03:57:17;101255.50;;;12.51;100.00
53480;BME280;56133;51.012;-1.648;2022-08-30T03:59:43;101259.19;;;12.50;100.00
53480;BME280;56133;51.012;-1.648;2022-08-30T04:02:08;101259.34;;;12.49;100.00
53480;BME280;56133;51.012;-1.648;2022-08-30T04:04:34;101257.75;;;12.46;100.00
53480;BME280;56133;51.012;-1.648;2022-08-30T04:06:59;101245.84;;;12.49;100.00
53480;BME280;56133;51.012;-1.648;2022-08-30T04:09:25;101246.69;;;12.49;100.00
53480;BME280;56133;51.012;-1.648;2022-08-30T04:11:50;101254.78;;;12.49;100.00
53480;BME280;56133;51.012;-1.648;2022-08-30T04:14:16;101253.94;;;12.49;100.00
53480;BME280;56133;51.012;-1.648;2022-08-30T04:16:42;101262.88;;;12.49;100.00
53480;BME280;56133;51.012;-1.648;2022-08-30T04:19:09;101267.16;;;12.52;100.00
53480;BME280;56133;51.012;-1.648;2022-08-30T04:21:35;101256.72;;;12.58;100.00
53480;BME280;56133;51.012;-1.648;2022-08-30T04:24:01;101261.25;;;12.58;100.00
53480;BME280;56133;51.012;-1.648;2022-08-30T04:26:27;101255.13;;;12.56;100.00
53480;BME280;56133;51.012;-1.648;2022-08-30T04:28:53;101256.97;;;12.55;100.00
53480;BME280;56133;51.012;-1.648;2022-08-30T04:31:19;101262.13;;;12.58;100.00
53480;BME280;56133;51.012;-1.648;2022-08-30T04:33:45;101266.53;;;12.59;100.00
53480;BME280;56133;51.012;-1.648;2022-08-30T04:36:11;101257.31;;;12.62;100.00
53480;BME280;56133;51.012;-1.648;2022-08-30T04:38:38;101261.88;;;12.62;100.00
53480;BME280;56133;51.012;-1.648;2022-08-30T04:41:12;101261.88;;;12.62;100.00
53480;BME280;56133;51.012;-1.648;2022-08-30T04:43:41;101255.09;;;12.67;100.00
53480;BME280;56133;51.012;-1.648;2022-08-30T04:46:07;101263.31;;;12.66;100.00
53480;BME280;56133;51.012;-1.648;2022-08-30T04:48:34;101261.34;;;12.68;100.00
53480;BME280;56133;51.012;-1.648;2022-08-30T04:51:03;101269.16;;;12.71;100.00
53480;BME280;56133;51.012;-1.648;2022-08-30T04:53:29;101264.50;;;12.73;100.00
53480;BME280;56133;51.012;-1.648;2022-08-30T04:55:54;101275.28;;;12.73;100.00
53480;BME280;56133;51.012;-1.648;2022-08-30T04:58:20;101276.88;;;12.75;100.00
53480;BME280;56133;51.012;-1.648;2022-08-30T05:00:45;101270.50;;;12.77;100.00
53480;BME280;56133;51.012;-1.648;2022-08-30T05:03:11;101270.38;;;12.78;100.00
53480;BME280;56133;51.012;-1.648;2022-08-30T05:05:36;101281.28;;;12.77;100.00
53480;BME280;56133;51.012;-1.648;2022-08-30T05:08:10;101277.34;;;12.81;100.00
53480;BME280;56133;51.012;-1.648;2022-08-30T05:10:46;101279.78;;;12.84;100.00
53480;BME280;56133;51.012;-1.648;2022-08-30T05:13:12;101285.28;;;12.82;100.00
53480;BME280;56133;51.012;-1.648;2022-08-30T05:15:38;101281.59;;;12.83;100.00
53480;BME280;56133;51.012;-1.648;2022-08-30T05:18:05;101284.78;;;12.88;100.00
53480;BME280;56133;51.012;-1.648;2022-08-30T05:20:32;101276.69;;;12.88;100.00
53480;BME280;56133;51.012;-1.648;2022-08-30T05:22:59;101283.66;;;12.91;100.00
53480;BME280;56133;51.012;-1.648;2022-08-30T05:25:27;101283.66;;;12.91;100.00
53480;BME280;56133;51.012;-1.648;2022-08-30T05:27:54;101279.13;;;12.92;100.00
53480;BME280;56133;51.012;-1.648;2022-08-30T05:30:20;101282.56;;;12.94;100.00
53480;BME280;56133;51.012;-1.648;2022-08-30T05:32:50;101283.41;;;12.94;100.00
53480;BME280;56133;51.012;-1.648;2022-08-30T05:35:16;101284.13;;;12.96;100.00
53480;BME280;56133;51.012;-1.648;2022-08-30T05:37:42;101289.66;;;12.95;100.00
53480;BME280;56133;51.012;-1.648;2022-08-30T05:40:08;101289.78;;;12.93;100.00
53480;BME280;56133;51.012;-1.648;2022-08-30T05:42:34;101287.09;;;12.93;100.00
53480;BME280;56133;51.012;-1.648;2022-08-30T05:45:00;101290.41;;;12.97;100.00
53480;BME280;56133;51.012;-1.648;2022-08-30T05:47:26;101286.44;;;13.01;100.00
53480;BME280;56133;51.012;-1.648;2022-08-30T05:49:52;101298.09;;;13.01;100.00
53480;BME280;56133;51.012;-1.648;2022-08-30T05:52:17;101292.69;;;13.01;100.00
53480;BME280;56133;51.012;-1.648;2022-08-30T05:54:44;101294.53;;;13.01;100.00
53480;BME280;56133;51.012;-1.648;2022-08-30T05:57:09;101298.81;;;13.03;100.00
53480;BME280;56133;51.012;-1.648;2022-08-30T05:59:35;101296.72;;;13.07;100.00
53480;BME280;56133;51.012;-1.648;2022-08-30T06:02:01;101304.28;;;13.13;100.00
53480;BME280;56133;51.012;-1.648;2022-08-30T06:04:26;101307.25;;;13.10;100.00
53480;BME280;56133;51.012;-1.648;2022-08-30T06:06:52;101306.84;;;13.15;100.00
53480;BME280;56133;51.012;-1.648;2022-08-30T06:09:17;101299.59;;;13.15;100.00
53480;BME280;56133;51.012;-1.648;2022-08-30T06:11:44;101306.59;;;13.18;100.00
53480;BME280;56133;51.012;-1.648;2022-08-30T06:14:10;101302.75;;;13.20;100.00
53480;BME280;56133;51.012;-1.648;2022-08-30T06:16:37;101303.50;;;13.23;100.00
53480;BME280;56133;51.012;-1.648;2022-08-30T06:19:03;101303.69;;;13.31;100.00
53480;BME280;56133;51.012;-1.648;2022-08-30T06:21:32;101306.41;;;13.31;100.00
53480;BME280;56133;51.012;-1.648;2022-08-30T06:24:02;101302.81;;;13.30;100.00
53480;BME280;56133;51.012;-1.648;2022-08-30T06:26:28;101302.44;;;13.35;100.00
53480;BME280;56133;51.012;-1.648;2022-08-30T06:28:55;101300.22;;;13.40;100.00
53480;BME280;56133;51.012;-1.648;2022-08-30T06:31:22;101311.25;;;13.37;100.00
53480;BME280;56133;51.012;-1.648;2022-08-30T06:33:48;101306.00;;;13.35;100.00
53480;BME280;56133;51.012;-1.648;2022-08-30T06:36:19;101308.44;;;13.39;100.00
53480;BME280;56133;51.012;-1.648;2022-08-30T06:38:46;101306.09;;;13.45;100.00
53480;BME280;56133;51.012;-1.648;2022-08-30T06:41:16;101299.72;;;13.46;100.00
53480;BME280;56133;51.012;-1.648;2022-08-30T06:43:43;101305.53;;;13.51;100.00
53480;BME280;56133;51.012;-1.648;2022-08-30T06:46:11;101304.44;;;13.54;100.00
53480;BME280;56133;51.012;-1.648;2022-08-30T06:48:36;101300.47;;;13.58;100.00
53480;BME280;56133;51.012;-1.648;2022-08-30T06:51:02;101308.44;;;13.60;100.00
53480;BME280;56133;51.012;-1.648;2022-08-30T06:53:28;101307.03;;;13.65;100.00
53480;BME280;56133;51.012;-1.648;2022-08-30T06:56:08;101304.53;;;13.74;100.00
53480;BME280;56133;51.012;-1.648;2022-08-30T06:58:39;101304.25;;;13.77;100.00
53480;BME280;56133;51.012;-1.648;2022-08-30T07:01:06;101307.59;;;13.90;100.00
53480;BME280;56133;51.012;-1.648;2022-08-30T07:03:33;101311.88;;;13.93;100.00
53480;BME280;56133;51.012;-1.648;2022-08-30T07:05:59;101310.69;;;13.86;100.00
53480;BME280;56133;51.012;-1.648;2022-08-30T07:08:25;101312.44;;;13.96;100.00
53480;BME280;56133;51.012;-1.648;2022-08-30T07:10:51;101298.25;;;14.04;100.00
53480;BME280;56133;51.012;-1.648;2022-08-30T07:13:19;101304.56;;;14.15;100.00
53480;BME280;56133;51.012;-1.648;2022-08-30T07:15:46;101313.97;;;14.20;100.00
53480;BME280;56133;51.012;-1.648;2022-08-30T07:18:12;101308.69;;;14.29;100.00
53480;BME280;56133;51.012;-1.648;2022-08-30T07:20:58;101307.88;;;14.38;100.00
53480;BME280;56133;51.012;-1.648;2022-08-30T07:23:23;101312.47;;;14.67;100.00
53480;BME280;56133;51.012;-1.648;2022-08-30T07:25:49;101313.81;;;14.92;100.00
53480;BME280;56133;51.012;-1.648;2022-08-30T07:28:15;101316.75;;;15.28;100.00
53480;BME280;56133;51.012;-1.648;2022-08-30T07:30:41;101319.16;;;15.41;100.00
53480;BME280;56133;51.012;-1.648;2022-08-30T07:33:08;101313.25;;;15.66;100.00
53480;BME280;56133;51.012;-1.648;2022-08-30T07:35:33;101308.38;;;15.89;100.00
53480;BME280;56133;51.012;-1.648;2022-08-30T07:37:59;101303.47;;;15.55;100.00
53480;BME280;56133;51.012;-1.648;2022-08-30T07:40:25;101316.03;;;15.36;100.00
53480;BME280;56133;51.012;-1.648;2022-08-30T07:42:51;101322.28;;;16.04;100.00
53480;BME280;56133;51.012;-1.648;2022-08-30T07:45:17;101313.16;;;16.05;100.00
53480;BME280;56133;51.012;-1.648;2022-08-30T07:47:43;101311.66;;;15.73;100.00
53480;BME280;56133;51.012;-1.648;2022-08-30T07:50:08;101311.03;;;15.51;100.00
53480;BME280;56133;51.012;-1.648;2022-08-30T07:52:34;101321.44;;;15.46;100.00
53480;BME280;56133;51.012;-1.648;2022-08-30T07:54:59;101313.84;;;15.59;100.00
53480;BME280;56133;51.012;-1.648;2022-08-30T07:57:25;101308.81;;;15.74;100.00
53480;BME280;56133;51.012;-1.648;2022-08-30T07:59:52;101313.78;;;15.89;100.00
53480;BME280;56133;51.012;-1.648;2022-08-30T08:02:17;101317.75;;;16.50;100.00
53480;BME280;56133;51.012;-1.648;2022-08-30T08:04:43;101317.13;;;16.75;100.00
53480;BME280;56133;51.012;-1.648;2022-08-30T08:07:09;101328.72;;;16.95;100.00
53480;BME280;56133;51.012;-1.648;2022-08-30T08:09:36;101323.84;;;16.98;100.00
53480;BME280;56133;51.012;-1.648;2022-08-30T08:12:05;101328.09;;;17.01;100.00
53480;BME280;56133;51.012;-1.648;2022-08-30T08:14:31;101327.84;;;16.94;100.00
53480;BME280;56133;51.012;-1.648;2022-08-30T08:16:57;101328.94;;;17.02;100.00
53480;BME280;56133;51.012;-1.648;2022-08-30T08:19:23;101317.69;;;17.14;100.00
53480;BME280;56133;51.012;-1.648;2022-08-30T08:21:48;101311.00;;;17.27;100.00
53480;BME280;56133;51.012;-1.648;2022-08-30T08:24:14;101335.66;;;17.60;100.00
53480;BME280;56133;51.012;-1.648;2022-08-30T08:26:39;101328.22;;;17.62;100.00
53480;BME280;56133;51.012;-1.648;2022-08-30T08:29:06;101337.53;;;17.33;100.00
53480;BME280;56133;51.012;-1.648;2022-08-30T08:31:32;101333.59;;;17.54;100.00
53480;BME280;56133;51.012;-1.648;2022-08-30T08:33:58;101322.78;;;17.36;100.00
53480;BME280;56133;51.012;-1.648;2022-08-30T08:36:25;101337.47;;;17.51;100.00
53480;BME280;56133;51.012;-1.648;2022-08-30T08:38:50;101326.19;;;17.64;100.00
53480;BME280;56133;51.012;-1.648;2022-08-30T08:44:13;101332.44;;;17.56;100.00
53480;BME280;56133;51.012;-1.648;2022-08-30T08:49:27;101334.53;;;17.97;100.00
53480;BME280;56133;51.012;-1.648;2022-08-30T08:51:53;101327.69;;;17.85;100.00
53480;BME280;56133;51.012;-1.648;2022-08-30T08:57:03;101332.72;;;18.06;99.93
53480;BME280;56133;51.012;-1.648;2022-08-30T08:59:29;101321.97;;;18.39;96.92
53480;BME280;56133;51.012;-1.648;2022-08-30T09:01:58;101324.66;;;18.23;98.62
53480;BME280;56133;51.012;-1.648;2022-08-30T09:04:31;101327.28;;;18.49;95.16
53480;BME280;56133;51.012;-1.648;2022-08-30T09:07:15;101326.78;;;18.45;93.08
53480;BME280;56133;51.012;-1.648;2022-08-30T09:09:45;101323.03;;;18.55;92.41
53480;BME280;56133;51.012;-1.648;2022-08-30T09:12:11;101333.31;;;18.18;94.15
53480;BME280;56133;51.012;-1.648;2022-08-30T09:14:40;101328.88;;;18.68;91.77
53480;BME280;56133;51.012;-1.648;2022-08-30T09:17:13;101333.44;;;18.59;90.78
53480;BME280;56133;51.012;-1.648;2022-08-30T09:27:38;101325.78;;;18.12;95.13
53480;BME280;56133;51.012;-1.648;2022-08-30T09:32:41;101328.84;;;18.09;94.56
53480;BME280;56133;51.012;-1.648;2022-08-30T09:35:22;101326.34;;;18.91;89.28
53480;BME280;56133;51.012;-1.648;2022-08-30T09:37:58;101330.13;;;19.15;85.00
53480;BME280;56133;51.012;-1.648;2022-08-30T09:43:06;101329.25;;;19.39;81.86
53480;BME280;56133;51.012;-1.648;2022-08-30T09:45:35;101334.88;;;19.13;83.42
53480;BME280;56133;51.012;-1.648;2022-08-30T09:48:27;101324.84;;;19.22;86.11
53480;BME280;56133;51.012;-1.648;2022-08-30T09:59:36;101327.69;;;19.70;79.68
53480;BME280;56133;51.012;-1.648;2022-08-30T10:05:30;101333.31;;;20.25;75.85
53480;BME280;56133;51.012;-1.648;2022-08-30T10:10:50;101334.88;;;18.96;82.17
53480;BME280;56133;51.012;-1.648;2022-08-30T10:13:31;101330.97;;;19.24;83.55
53480;BME280;56133;51.012;-1.648;2022-08-30T10:18:37;101340.13;;;19.56;78.41
53480;BME280;56133;51.012;-1.648;2022-08-30T10:23:49;101342.47;;;18.76;86.47
53480;BME280;56133;51.012;-1.648;2022-08-30T10:26:29;101339.94;;;19.74;79.30
53480;BME280;56133;51.012;-1.648;2022-08-30T10:29:24;101336.53;;;19.80;78.52
53480;BME280;56133;51.012;-1.648;2022-08-30T10:31:52;101337.19;;;19.82;78.23
53480;BME280;56133;51.012;-1.648;2022-08-30T10:37:31;101334.00;;;19.70;82.47
53480;BME280;56133;51.012;-1.648;2022-08-30T10:40:10;101336.34;;;19.74;78.58
53480;BME280;56133;51.012;-1.648;2022-08-30T10:42:57;101334.97;;;19.94;78.23
53480;BME280;56133;51.012;-1.648;2022-08-30T10:45:26;101340.91;;;20.06;76.99
53480;BME280;56133;51.012;-1.648;2022-08-30T10:48:15;101339.09;;;20.30;78.29
53480;BME280;56133;51.012;-1.648;2022-08-30T10:50:50;101344.69;;;19.97;76.85
53480;BME280;56133;51.012;-1.648;2022-08-30T10:58:49;101345.59;;;19.73;80.23
53480;BME280;56133;51.012;-1.648;2022-08-30T11:04:09;101339.88;;;19.99;78.04
53480;BME280;56133;51.012;-1.648;2022-08-30T11:15:17;101344.88;;;20.35;77.97
53480;BME280;56133;51.012;-1.648;2022-08-30T11:18:03;101340.31;;;20.59;74.80
53480;BME280;56133;51.012;-1.648;2022-08-30T11:20:37;101340.69;;;20.87;74.60
53480;BME280;56133;51.012;-1.648;2022-08-30T11:39:08;101343.03;;;20.59;74.89
53480;BME280;56133;51.012;-1.648;2022-08-30T11:46:47;101329.66;;;20.09;75.72
53480;BME280;56133;51.012;-1.648;2022-08-30T11:57:24;101343.16;;;20.34;76.13
53480;BME280;56133;51.012;-1.648;2022-08-30T12:02:56;101339.41;;;20.35;77.41
53480;BME280;56133;51.012;-1.648;2022-08-30T12:13:53;101334.47;;;19.91;79.45
53480;BME280;56133;51.012;-1.648;2022-08-30T12:16:38;101334.38;;;20.15;77.12
53480;BME280;56133;51.012;-1.648;2022-08-30T12:19:25;101336.41;;;20.22;76.88
53480;BME280;56133;51.012;-1.648;2022-08-30T12:21:56;101343.41;;;20.16;75.47
53480;BME280;56133;51.012;-1.648;2022-08-30T12:24:29;101332.31;;;20.17;76.38
53480;BME280;56133;51.012;-1.648;2022-08-30T12:26:57;101334.97;;;20.34;75.45
53480;BME280;56133;51.012;-1.648;2022-08-30T12:29:28;101335.03;;;20.26;75.92
53480;BME280;56133;51.012;-1.648;2022-08-30T12:34:30;101331.00;;;20.45;75.34
53480;BME280;56133;51.012;-1.648;2022-08-30T12:37:03;101334.72;;;20.52;77.18
53480;BME280;56133;51.012;-1.648;2022-08-30T12:39:31;101330.09;;;20.53;73.62
53480;BME280;56133;51.012;-1.648;2022-08-30T12:42:22;101334.88;;;20.51;73.46
53480;BME280;56133;51.012;-1.648;2022-08-30T12:44:50;101327.59;;;20.74;72.51
53480;BME280;56133;51.012;-1.648;2022-08-30T12:47:19;101321.78;;;21.01;72.17
53480;BME280;56133;51.012;-1.648;2022-08-30T12:49:47;101316.59;;;21.29;70.64
53480;BME280;56133;51.012;-1.648;2022-08-30T12:52:38;101323.00;;;21.75;68.11
53480;BME280;56133;51.012;-1.648;2022-08-30T12:55:14;101307.97;;;22.16;65.99
53480;BME280;56133;51.012;-1.648;2022-08-30T12:57:57;101310.16;;;22.20;64.06
53480;BME280;56133;51.012;-1.648;2022-08-30T13:00:23;101301.53;;;22.53;65.99
53480;BME280;56133;51.012;-1.648;2022-08-30T13:02:51;101308.09;;;23.02;64.19
53480;BME280;56133;51.012;-1.648;2022-08-30T13:05:31;101298.44;;;22.63;60.34
53480;BME280;56133;51.012;-1.648;2022-08-30T13:08:13;101298.06;;;22.88;61.68
53480;BME280;56133;51.012;-1.648;2022-08-30T13:10:58;101294.75;;;22.71;61.14
53480;BME280;56133;51.012;-1.648;2022-08-30T13:13:40;101285.03;;;22.90;58.70
53480;BME280;56133;51.012;-1.648;2022-08-30T13:21:52;101283.34;;;22.89;60.30
53480;BME280;56133;51.012;-1.648;2022-08-30T13:24:18;101281.53;;;23.53;54.28
53480;BME280;56133;51.012;-1.648;2022-08-30T13:26:44;101278.28;;;24.95;51.44
53480;BME280;56133;51.012;-1.648;2022-08-30T13:29:19;101282.28;;;25.20;49.17
53480;BME280;56133;51.012;-1.648;2022-08-30T13:31:45;101278.91;;;25.11;47.56
53480;BME280;56133;51.012;-1.648;2022-08-30T13:34:11;101271.91;;;26.28;45.45
53480;BME280;56133;51.012;-1.648;2022-08-30T13:36:44;101277.44;;;25.49;46.62
53480;BME280;56133;51.012;-1.648;2022-08-30T13:39:10;101274.28;;;24.98;47.54
53480;BME280;56133;51.012;-1.648;2022-08-30T13:41:36;101268.88;;;24.43;49.19
53480;BME280;56133;51.012;-1.648;2022-08-30T13:44:02;101264.75;;;24.94;48.42
53480;BME280;56133;51.012;-1.648;2022-08-30T13:46:29;101266.44;;;25.49;46.55
53480;BME280;56133;51.012;-1.648;2022-08-30T13:49:02;101265.16;;;25.11;46.88
53480;BME280;56133;51.012;-1.648;2022-08-30T13:51:28;101255.00;;;24.78;47.73
53480;BME280;56133;51.012;-1.648;2022-08-30T13:53:54;101256.91;;;24.02;48.95
53480;BME280;56133;51.012;-1.648;2022-08-30T13:56:19;101250.88;;;23.78;50.53
53480;BME280;56133;51.012;-1.648;2022-08-30T13:58:45;101249.19;;;24.25;49.52
53480;BME280;56133;51.012;-1.648;2022-08-30T14:01:10;101245.47;;;24.67;46.43
53480;BME280;56133;51.012;-1.648;2022-08-30T14:03:36;101245.72;;;24.85;47.85
53480;BME280;56133;51.012;-1.648;2022-08-30T14:06:01;101241.06;;;24.73;46.71
53480;BME280;56133;51.012;-1.648;2022-08-30T14:08:29;101242.84;;;23.76;48.79
53480;BME280;56133;51.012;-1.648;2022-08-30T14:10:55;101251.09;;;23.13;50.99
53480;BME280;56133;51.012;-1.648;2022-08-30T14:13:21;101244.88;;;22.76;51.83
53480;BME280;56133;51.012;-1.648;2022-08-30T14:15:47;101240.56;;;22.45;53.55
53480;BME280;56133;51.012;-1.648;2022-08-30T14:18:13;101242.56;;;22.79;53.93
53480;BME280;56133;51.012;-1.648;2022-08-30T14:20:38;101237.81;;;24.42;47.53
53480;BME280;56133;51.012;-1.648;2022-08-30T14:23:05;101227.69;;;24.43;46.80
53480;BME280;56133;51.012;-1.648;2022-08-30T14:25:30;101235.25;;;23.37;48.42
53480;BME280;56133;51.012;-1.648;2022-08-30T14:27:56;101229.66;;;23.23;49.86
53480;BME280;56133;51.012;-1.648;2022-08-30T14:30:22;101232.28;;;23.10;49.46